createdAt,value
2024-01-19T00:08:46.922Z,97670.72
2024-01-19T00:18:51.149Z,97683.75
2024-01-19T00:28:53.950Z,97684.38
2024-01-19T00:38:58.297Z,97698.84
2024-01-19T00:49:00.949Z,97700.00
2024-01-19T00:59:05.129Z,97720.50
2024-01-19T01:09:08.740Z,97724.56
2024-01-19T01:19:12.858Z,97731.53
2024-01-19T01:29:15.676Z,97743.41
2024-01-19T01:39:20.238Z,97781.94
2024-01-19T01:49:23.239Z,97795.44
2024-01-19T01:59:27.919Z,97807.75
2024-01-19T02:09:31.340Z,97814.06
2024-01-19T02:19:36.823Z,97819.56
2024-01-19T02:29:41.044Z,97824.06
2024-01-19T02:39:43.789Z,97818.78
2024-01-19T02:49:48.258Z,97822.25
2024-01-19T02:59:50.859Z,97828.31
2024-01-19T03:09:55.004Z,97830.13
2024-01-19T03:19:57.735Z,97835.38
2024-01-19T03:30:01.934Z,97847.03
2024-01-19T03:40:07.490Z,97851.22
2024-01-19T03:50:12.406Z,97855.00
2024-01-19T04:00:15.580Z,97860.84
2024-01-19T04:10:19.640Z,97876.81
2024-01-19T04:20:22.451Z,97873.31
2024-01-19T04:30:26.620Z,97878.69
2024-01-19T04:40:29.363Z,97897.50
2024-01-19T04:50:33.622Z,97896.66
2024-01-19T05:00:36.363Z,97908.69
2024-01-19T05:10:40.634Z,97915.03
2024-01-19T05:20:43.545Z,97932.09
2024-01-19T05:30:49.635Z,97934.81
2024-01-19T05:40:52.401Z,97948.91
2024-01-19T05:50:56.684Z,97961.06
2024-01-19T06:00:59.722Z,97975.53
2024-01-19T06:11:03.864Z,97989.09
2024-01-19T06:21:11.425Z,98006.47
2024-01-19T06:31:15.540Z,98028.50
2024-01-19T06:41:19.059Z,98044.56
2024-01-19T06:51:25.540Z,98056.38
2024-01-19T07:01:28.387Z,98052.03
2024-01-19T07:11:32.490Z,98062.66
2024-01-19T07:21:41.288Z,98081.06
2024-01-19T07:31:45.419Z,98099.47
2024-01-19T07:41:48.157Z,98123.03
2024-01-19T07:51:52.312Z,98149.06
2024-01-19T08:01:55.403Z,98170.03
2024-01-19T08:11:59.606Z,98180.78
2024-01-19T08:22:02.472Z,98192.69
2024-01-19T08:32:06.871Z,98213.06
2024-01-19T08:42:09.722Z,98227.75
2024-01-19T08:52:13.842Z,98236.28
2024-01-19T09:02:16.644Z,98238.13
2024-01-19T09:12:20.793Z,98247.22
2024-01-19T09:22:23.347Z,98265.56
2024-01-19T09:32:28.085Z,98273.09
2024-01-19T09:42:34.721Z,98305.94
2024-01-19T09:52:51.027Z,98323.03
2024-01-19T10:02:56.854Z,98355.25
2024-01-19T10:13:02.345Z,98351.91
2024-01-19T10:23:19.786Z,98351.56
2024-01-19T10:33:23.927Z,98372.72
2024-01-19T10:43:28.161Z,98382.75
2024-01-19T10:53:32.448Z,98392.16
2024-01-19T11:03:35.272Z,98396.41
2024-01-19T11:13:41.371Z,98399.16
2024-01-19T11:23:45.061Z,98405.41
2024-01-19T11:33:49.377Z,98419.44
2024-01-19T11:43:52.284Z,98424.41
2024-01-19T11:54:01.246Z,98426.75
2024-01-19T12:04:04.390Z,98430.59
2024-01-19T12:14:10.746Z,98433.47
2024-01-19T12:24:20.494Z,98440.47
2024-01-19T12:34:24.589Z,98439.47
2024-01-19T12:44:27.958Z,98439.44
2024-01-19T12:54:44.416Z,98433.16
2024-01-19T13:04:47.359Z,98430.22
2024-01-19T13:14:51.464Z,98433.50
2024-01-19T13:24:54.476Z,98440.84
2024-01-19T13:34:58.604Z,98441.22
2024-01-19T13:45:03.519Z,98456.44
2024-01-19T13:55:09.786Z,98477.19
2024-01-19T14:05:12.807Z,98478.25
2024-01-19T14:15:17.318Z,98486.00
2024-01-19T14:25:20.061Z,98492.88
2024-01-19T14:35:24.749Z,98503.19
2024-01-19T14:45:27.652Z,98510.09
2024-01-19T14:55:32.117Z,98529.78
2024-01-19T15:05:35.007Z,98537.22
2024-01-19T15:15:39.066Z,98550.78
2024-01-19T15:25:42.427Z,98566.72
2024-01-19T15:35:46.851Z,98586.38
2024-01-19T15:45:51.661Z,98596.81
2024-01-19T15:55:55.809Z,98618.00
2024-01-19T16:05:58.774Z,98622.31
2024-01-19T16:16:08.502Z,98636.41
2024-01-19T16:26:11.410Z,98639.47
2024-01-19T16:36:15.639Z,98648.41
2024-01-19T16:46:21.986Z,98657.19
2024-01-19T16:56:26.511Z,98672.59
2024-01-19T17:06:29.547Z,98691.66
2024-01-19T17:16:34.092Z,98695.53
2024-01-19T17:26:36.673Z,98692.50
2024-01-19T17:36:40.798Z,98704.44
2024-01-19T17:46:44.654Z,98729.84
2024-01-19T17:56:48.778Z,98746.03
2024-01-19T18:06:51.805Z,98760.00
2024-01-19T18:16:56.712Z,98780.72
2024-01-19T18:27:00.312Z,98789.34
2024-01-19T18:37:05.444Z,98797.84
2024-01-19T18:47:08.539Z,98816.16
2024-01-19T18:57:15.096Z,98833.84
2024-01-19T19:07:19.037Z,98852.31
2024-01-19T19:17:23.418Z,98865.69
2024-01-19T19:27:26.374Z,98865.25
2024-01-19T19:37:30.448Z,98871.09
2024-01-19T19:47:33.214Z,98880.31
2024-01-19T19:57:39.131Z,98890.88
2024-01-19T20:07:42.016Z,98892.25
2024-01-19T20:17:50.528Z,98897.75
2024-01-19T20:27:53.544Z,98896.03
2024-01-19T20:37:57.873Z,98895.44
2024-01-19T20:48:01.066Z,98894.97
2024-01-19T20:58:05.990Z,98895.72
2024-01-19T21:08:09.223Z,98898.41
2024-01-19T21:18:13.504Z,98904.09
2024-01-19T21:28:16.773Z,98907.78
2024-01-19T21:38:20.923Z,98919.59
2024-01-19T21:48:24.019Z,98935.59
2024-01-19T21:58:28.293Z,98939.13
2024-01-19T22:08:31.572Z,98939.84
2024-01-19T22:18:38.210Z,98946.44
2024-01-19T22:28:41.255Z,98950.72
2024-01-19T22:38:45.938Z,98964.53
2024-01-19T22:48:49.514Z,98962.41
2024-01-19T22:58:57.554Z,98969.00
2024-01-19T23:09:00.968Z,98986.66
2024-01-19T23:19:19.769Z,98996.66
2024-01-19T23:29:25.077Z,99009.59
2024-01-19T23:39:30.227Z,99009.81
2024-01-19T23:49:34.998Z,98992.34
2024-01-19T23:59:39.118Z,98977.84
